Latest Weather Observations for Campania

IDT60801

Issued at 3:41 pm EST Wednesday 20 June 2018 (issued every 10 minutes, with the page automatically refreshed every 10 minutes)

About weather observations | Map of weather stations | Latest weather observations for TAS | Other Formats
Station Details ID: 094212 Name: CAMPANIA (KINCORA) Lat: -42.69 Lon: 147.43 Height: 45.0 m
Data from the previous 72 hours. | See also: Recent months at Campania
Date/Time
EST
Temp
°C
App
Temp
°C
Dew
Point
°C
Rel
Hum
%
Delta-T
°C
Wind Press
QNH
hPa
Press
MSL
hPa
Rain since
9am
mm
Dir  Spd
km/h
Gust
km/h
Spd
kts
Gust
kts
20/03:30pm 12.3 8.8 7.0 70 2.6 N 15 20 8 11 - - 0.0
20/03:00pm 12.6 9.4 6.9 68 2.7 N 13 17 7 9 - - 0.0
20/02:30pm 12.9 7.9 6.5 65 3.1 N 22 32 12 17 - - 0.0
20/02:00pm 12.7 7.6 6.1 64 3.1 N 22 30 12 16 - - 0.0
20/01:30pm 12.3 7.2 6.1 66 2.9 N 22 30 12 16 - - 0.0
20/01:00pm 12.2 7.6 6.5 68 2.7 NNE 20 28 11 15 - - 0.0
20/12:30pm 11.9 7.4 6.2 68 2.7 N 19 24 10 13 - - 0.0
20/12:00pm 11.5 7.8 6.4 71 2.4 N 15 20 8 11 - - 0.0
20/11:30am 11.0 6.7 5.3 68 2.6 N 17 26 9 14 - - 0.0
20/11:00am 10.8 6.2 5.6 70 2.4 N 19 24 10 13 - - 0.0
20/10:30am 9.8 7.6 6.2 78 1.7 NNW 7 9 4 5 - - 0.0
20/10:00am 7.5 5.0 5.0 84 1.1 NNW 7 9 4 5 - - 0.0
20/09:30am 6.1 3.0 3.8 85 1.0 NNW 9 9 5 5 - - 0.0
20/09:00am 6.0 2.2 3.7 85 1.0 NNW 13 17 7 9 - - 0.2
20/08:30am 4.4 0.8 2.8 89 0.7 NNW 11 17 6 9 - - 0.2
20/08:00am 1.8 -1.3 1.1 95 0.3 N 7 9 4 5 - - 0.2
20/07:30am 1.2 -0.8 0.2 93 0.4 CALM 0 6 0 3 - - 0.2
20/07:00am 2.1 -1.0 1.1 93 0.4 N 7 11 4 6 - - 0.2
20/06:30am 2.3 -1.2 1.4 94 0.3 N 9 11 5 6 - - 0.2
20/06:00am 2.2 -1.7 1.2 93 0.4 N 11 13 6 7 - - 0.2
20/05:30am 2.2 -1.7 1.3 94 0.3 NNW 11 13 6 7 - - 0.2
20/05:00am 1.8 -1.4 0.6 92 0.4 N 7 9 4 5 - - 0.2
20/04:30am 2.5 -1.8 1.0 90 0.6 N 13 19 7 10 - - 0.2
20/04:00am 3.6 -0.1 2.1 90 0.6 N 11 15 6 8 - - 0.2
20/03:30am 4.0 0.3 2.2 88 0.7 NNE 11 15 6 8 - - 0.2
20/03:00am 6.2 1.1 3.2 81 1.3 N 19 26 10 14 - - 0.2
20/02:30am 5.0 1.1 3.3 89 0.7 N 13 19 7 10 - - 0.0
20/02:00am 3.1 -1.1 1.5 89 0.6 N 13 13 7 7 - - 0.0
20/01:30am 5.5 1.5 2.8 83 1.1 N 13 20 7 11 - - 0.0
20/01:00am 6.5 1.9 3.8 83 1.1 N 17 26 9 14 - - 0.0
20/12:30am 6.0 1.4 3.8 86 0.9 N 17 24 9 13 - - 0.0
20/12:00am 6.1 1.0 4.3 88 0.8 N 20 28 11 15 - - 0.0
 
Date/Time
EST
Temp
°C
App
Temp
°C
Dew
Point
°C
Rel
Hum
%
Delta-T
°C
Wind Press
QNH
hPa
Press
MSL
hPa
Rain since
9am
mm
Dir  Spd
km/h
Gust
km/h
Spd
kts
Gust
kts
19/11:30pm 4.6 0.7 3.4 92 0.5 N 13 19 7 10 - - 0.0
19/11:00pm 2.7 -0.3 2.1 96 0.2 NNE 7 7 4 4 - - 0.0
19/10:30pm 3.1 0.4 2.7 97 0.2 NNE 6 7 3 4 - - 0.0
19/10:00pm 2.7 0.3 2.1 96 0.2 NNE 4 9 2 5 - - 0.0
19/09:30pm 2.8 -0.2 2.2 96 0.2 N 7 11 4 6 - - 0.0
19/09:00pm 2.7 -0.7 2.1 96 0.2 NNE 9 11 5 6 - - 0.0
19/08:30pm 2.9 -0.4 2.2 95 0.3 NNE 9 13 5 7 - - 0.0
19/08:00pm 2.9 0.1 2.0 94 0.4 N 6 7 3 4 - - 0.0
19/07:30pm 3.9 0.7 3.3 96 0.2 N 9 11 5 6 - - 0.0
19/07:00pm 3.9 1.1 3.2 95 0.3 NNW 7 9 4 5 - - 0.0
19/06:30pm 4.3 1.1 3.3 93 0.4 N 9 11 5 6 - - 0.0
19/06:00pm 5.4 2.8 4.2 92 0.5 NNW 7 9 4 5 - - 0.0
19/05:30pm 5.7 3.0 3.9 88 0.8 NNW 7 9 4 5 - - 0.0
19/05:00pm 6.4 5.3 4.9 90 0.7 CALM 0 0 0 0 - - 0.0
19/04:30pm 8.2 7.0 4.4 77 1.7 CALM 0 4 0 2 - - 0.0
19/04:00pm 12.3 10.6 6.1 66 2.9 N 4 6 2 3 - - 0.0
19/03:30pm 12.5 10.2 5.7 63 3.2 N 7 9 4 5 - - 0.0
19/03:00pm 12.4 9.7 5.6 63 3.2 N 9 11 5 6 - - 0.0
19/02:30pm 12.3 9.5 5.2 62 3.3 N 9 11 5 6 - - 0.0
19/02:00pm 12.0 8.3 4.7 61 3.3 N 13 15 7 8 - - 0.0
19/01:30pm 12.0 8.7 4.7 61 3.3 N 11 15 6 8 - - 0.0
19/01:00pm 12.1 9.0 5.5 64 3.1 NNW 11 15 6 8 - - 0.0
19/12:30pm 12.0 9.9 5.6 65 3.0 NE 6 11 3 6 - - 0.0
19/12:00pm 11.2 9.0 5.3 67 2.7 NE 6 9 3 5 - - 0.0
19/11:30am 10.4 8.6 5.2 70 2.4 NNE 4 7 2 4 - - 0.0
19/11:00am 9.5 7.6 4.9 73 2.1 NNE 4 9 2 5 - - 0.0
19/10:30am 8.2 5.7 5.0 80 1.4 NNE 7 9 4 5 - - 0.0
19/10:00am 6.4 3.8 4.1 85 1.0 NNE 7 9 4 5 - - 0.0
19/09:30am 5.0 2.2 3.3 89 0.7 N 7 11 4 6 - - 0.0
19/09:00am 4.2 0.6 3.2 93 0.4 N 11 15 6 8 - - 1.0
19/08:30am 3.7 0.1 2.8 94 0.4 N 11 13 6 7 - - 1.0
19/08:00am 3.6 -0.1 2.4 92 0.5 N 11 13 6 7 - - 1.0
19/07:30am 3.5 -1.0 2.3 92 0.5 N 15 17 8 9 - - 1.0
19/07:00am 2.4 -0.7 1.1 91 0.5 N 7 9 4 5 - - 1.0
19/06:30am 3.2 -0.9 2.2 93 0.4 N 13 15 7 8 - - 1.0
19/06:00am 3.7 0.5 2.8 94 0.4 N 9 11 5 6 - - 1.0
19/05:30am 4.5 1.1 3.8 95 0.3 N 11 13 6 7 - - 1.0
19/05:00am 4.0 1.2 3.1 94 0.4 N 7 9 4 5 - - 1.0
19/04:30am 5.1 3.5 4.4 95 0.3 NNE 2 7 1 4 - - 1.0
19/04:00am 5.9 3.4 5.0 94 0.4 N 7 9 4 5 - - 1.0
19/03:30am 6.1 3.3 5.1 93 0.4 N 9 11 5 6 - - 1.0
19/03:00am 6.5 4.3 5.5 93 0.4 N 6 7 3 4 - - 1.0
19/02:30am 6.6 4.3 5.6 93 0.4 N 7 9 4 5 - - 1.0
19/02:00am 6.8 4.2 6.1 95 0.3 N 9 11 5 6 - - 1.0
19/01:30am 6.7 4.1 6.0 95 0.3 NNE 9 13 5 7 - - 1.0
19/01:00am 6.5 3.8 5.8 95 0.3 N 9 11 5 6 - - 1.0
19/12:30am 6.5 4.4 5.9 96 0.3 N 6 9 3 5 - - 1.0
19/12:00am 6.4 4.1 5.7 95 0.3 N 7 9 4 5 - - 1.0
 
Date/Time
EST
Temp
°C
App
Temp
°C
Dew
Point
°C
Rel
Hum
%
Delta-T
°C
Wind Press
QNH
hPa
Press
MSL
hPa
Rain since
9am
mm
Dir  Spd
km/h
Gust
km/h
Spd
kts
Gust
kts
18/11:30pm 6.7 4.1 6.0 95 0.3 N 9 11 5 6 - - 1.0
18/11:00pm 6.5 3.9 5.9 96 0.3 NNE 9 11 5 6 - - 1.0
18/10:30pm 6.3 4.0 5.9 97 0.2 NNE 7 9 4 5 - - 1.0
18/10:00pm 6.1 4.0 5.7 97 0.2 NNW 6 9 3 5 - - 1.0
18/09:30pm 5.9 3.6 5.6 98 0.1 NNE 7 11 4 6 - - 1.0
18/09:00pm 4.6 2.0 4.3 98 0.1 NNE 7 9 4 5 - - 1.0
18/08:30pm 4.3 1.8 3.9 97 0.2 NNE 6 9 3 5 - - 1.0
18/08:00pm 4.0 0.9 3.4 96 0.2 N 9 11 5 6 - - 1.0
18/07:30pm 4.5 2.4 3.8 95 0.3 SSE 4 7 2 4 - - 1.0
18/07:00pm 6.2 3.9 5.5 95 0.3 S 7 7 4 4 - - 1.0
18/06:30pm 6.4 4.6 5.4 93 0.4 S 4 7 2 4 - - 1.0
18/06:00pm 7.6 5.1 6.7 94 0.4 SSW 9 11 5 6 - - 1.0
18/05:30pm 7.8 5.6 6.4 91 0.6 SSE 7 9 4 5 - - 1.0
18/05:00pm 7.8 5.5 5.9 88 0.9 S 7 9 4 5 - - 1.0
18/04:30pm 8.5 5.2 6.3 86 1.0 SSW 13 17 7 9 - - 1.0
18/04:00pm 9.0 4.5 6.3 83 1.2 SSW 19 24 10 13 - - 1.0
18/03:30pm 9.0 3.2 6.3 83 1.2 SSW 26 33 14 18 - - 1.0
18/03:00pm 9.0 4.1 7.1 88 0.9 S 22 28 12 15 - - 1.0
18/02:30pm 9.3 4.4 6.7 84 1.2 S 22 35 12 19 - - 0.8
18/02:00pm 9.6 5.4 7.5 87 1.0 SSW 19 28 10 15 - - 0.8
18/01:30pm 9.2 4.6 8.0 92 0.6 S 22 32 12 17 - - 0.8
18/01:00pm 9.9 5.6 7.8 87 1.0 S 20 26 11 14 - - 0.0
18/12:30pm 9.8 4.9 7.1 83 1.3 S 22 28 12 15 - - 0.0
18/12:00pm 10.0 5.5 7.1 82 1.4 S 20 30 11 16 - - 0.0
18/11:30am 9.5 4.5 6.6 82 1.4 S 22 30 12 16 - - 0.0
18/11:00am 9.7 5.4 7.0 83 1.3 S 19 26 10 14 - - 0.0
18/10:30am 8.5 4.1 6.5 87 0.9 SSW 19 26 10 14 - - 0.0
18/10:00am 8.5 4.0 6.1 85 1.1 S 19 26 10 14 - - 0.0
18/09:30am 7.7 5.1 6.3 91 0.6 SSE 9 13 5 7 - - 0.0
18/09:00am 7.4 4.0 5.9 90 0.7 S 13 19 7 10 - - 6.4
18/08:30am 7.2 2.6 5.7 90 0.7 S 19 26 10 14 - - 6.4
18/08:00am 7.0 2.3 5.2 88 0.8 SSW 19 24 10 13 - - 6.4
18/07:30am 6.6 1.7 5.2 91 0.6 SSW 20 30 11 16 - - 6.4
18/07:00am 7.2 3.8 4.2 81 1.3 SSW 11 24 6 13 - - 6.2
18/06:30am 7.3 2.2 4.3 81 1.3 SSW 20 30 11 16 - - 6.2
18/06:00am 6.5 2.8 4.2 85 1.0 S 13 19 7 10 - - 6.2
18/05:30am 5.9 2.2 4.2 89 0.7 S 13 17 7 9 - - 6.2
18/05:00am 6.4 1.6 4.6 88 0.8 SSW 19 26 10 14 - - 6.2
18/04:30am 6.5 1.1 4.5 87 0.9 SSW 22 30 12 16 - - 6.2
18/04:00am 6.6 0.0 4.4 86 1.0 SW 28 37 15 20 - - 6.2
18/03:30am 6.6 0.9 4.8 88 0.8 SSW 24 33 13 18 - - 6.2
18/03:00am 7.4 2.3 4.0 79 1.5 SSW 20 28 11 15 - - 6.2
18/02:30am 7.6 1.7 4.0 78 1.6 SSW 24 35 13 19 - - 6.2
18/02:00am 7.9 2.7 3.8 75 1.8 SSW 20 28 11 15 - - 6.2
18/01:30am 8.3 1.6 3.4 71 2.1 SSW 28 35 15 19 - - 6.2
18/01:00am 8.1 2.5 3.4 72 2.0 SSW 22 32 12 17 - - 6.2
18/12:30am 8.0 2.1 3.7 74 1.9 SSW 24 33 13 18 - - 6.2
18/12:00am 8.1 1.1 4.1 76 1.7 SSW 30 39 16 21 - - 6.2
 
Date/Time
EST
Temp
°C
App
Temp
°C
Dew
Point
°C
Rel
Hum
%
Delta-T
°C
Wind Press
QNH
hPa
Press
MSL
hPa
Rain since
9am
mm
Dir  Spd
km/h
Gust
km/h
Spd
kts
Gust
kts
17/11:30pm 8.0 0.8 4.9 81 1.4 SSW 32 46 17 25 - - 6.2
17/11:00pm 7.9 2.7 5.4 84 1.1 SSW 22 32 12 17 - - 6.2
17/10:30pm 8.0 1.2 5.1 82 1.3 SSW 30 43 16 23 - - 6.2
17/10:00pm 8.3 2.7 5.4 82 1.3 SSW 24 30 13 16 - - 6.2
17/09:30pm 8.3 3.1 5.4 82 1.3 SSW 22 33 12 18 - - 6.2
17/09:00pm 8.5 3.7 5.4 81 1.4 SSW 20 28 11 15 - - 6.2
17/08:30pm 8.7 3.1 5.3 79 1.5 SSW 24 35 13 19 - - 6.2
17/08:00pm 8.6 2.6 5.5 81 1.4 SSW 26 39 14 21 - - 6.2
17/07:30pm 8.6 3.1 5.7 82 1.3 SSW 24 37 13 20 - - 6.2
17/07:00pm 8.6 3.1 5.9 83 1.2 S 24 35 13 19 - - 6.2
17/06:30pm 8.7 2.9 6.2 84 1.1 SSW 26 35 14 19 - - 6.2
17/06:00pm 8.7 3.1 5.6 81 1.4 SSW 24 35 13 19 - - 6.2
17/05:30pm 9.0 3.1 5.6 79 1.5 SSW 26 39 14 21 - - 6.2
17/05:00pm 9.1 3.6 5.7 79 1.5 SSW 24 32 13 17 - - 6.0
17/04:30pm 9.3 3.8 5.7 78 1.6 SSW 24 32 13 17 - - 6.0
17/04:00pm 9.2 3.9 6.6 84 1.2 S 24 41 13 22 - - 6.0

Other Formats:

Comma delimited format used in spreadsheet applications
http://www.bom.gov.au/fwo/IDT60801/IDT60801.95972.axf

JavaScript Object Notation format (JSON) in row-major order
http://www.bom.gov.au/fwo/IDT60801/IDT60801.95972.json